Blossom Valley, California
Current Conditions -  °F | °C
As of 5:10 AM on Sunday 21 Dec 2014 (Local Time) from KNUQ Reporting Station
Broken Clouds Broken Clouds  
Wind Chill: 57°   Ceiling: 4800
Heat Index: 57°   Visibility: 10mi
Dew Point: 54°   Wind: 0mph
Humidity: 88%   Direction: NA
Pressure: 30.27"   Gusts: NA
Location:  37.3801°N, 122.086°W
Report Text: KNUQ 211310Z 00000KT 10SM SCT017 BKN048 14/12 A3027 RMK AO2
Loading
Personal Weather Stations






























Interactive Weather Map New forecast layout! Learn more

10-Day Weather Forecast

Advertisements
Track Severe Weather on mobile